Check out our new PWSWeather beta!
PWSweather.com
Personal Weather Stations
Station Observations
RABENWTTR
Rabenberg, RanstadtDE 63691

RabenbergRanstadtDE 63691

Lat: 50.3631881, Lon: 8.9821588

Elevation: 509

Station Type: Davis Vantage Pro 2 active

https://www.rabenwetter.de

Latest ConditionsUpdated 11:45:00 AM GMT+01:01 Wednesday, Feb 26, 2020
Currently Today's Max Today's Min Today's Average
Temperature 38.9°F3.8°C 42.7°F5.9°C 37.9°F3.3°C 39.3°F4.1°C
Dew Point 34.8°F1.6°C 39.4°F4.1°C 33.4°F0.8°C 35.4°F1.9°C
Winds 6.0 mph SSE9.7 kmh SSE 6.0 mph -9.7 kmh - - 2.7 mph 4.3 kmh
Wind Gusts 11.0 mph17.7 kmh 17.0 mph27.4 kmh - -
Humidity 85% 90% 82% 86%
Pressure 29.38 in994.9 mb 29.38 in994.9 mb 29.28 in991.5 mb -
Precipitation - 0.05 in1.3 mm - -
Hour Temp Dew Point Humidity Winds Wind Gusts Pressure Precip Precip Rate Daily Precip Total
11:45 AM 38.9°F3.8°C 34.8°F1.6°C 85% 6.0 mph SSE9.7 kmh SSE 11.0 mph17.7 kmh 29.38 in994.9 mb 0.00 in0.0 mm 0.00 in0.0 mm 0.05 in1.3 mm
11:40 AM 38.9°F3.8°C 34.8°F1.6°C 85% 5.0 mph SSE8.0 kmh SSE 12.0 mph19.3 kmh 29.37 in994.6 mb 0.00 in0.0 mm 0.00 in0.0 mm 0.05 in1.3 mm
11:35 AM 38.9°F3.8°C 34.8°F1.6°C 85% 5.0 mph SSE8.0 kmh SSE 11.0 mph17.7 kmh 29.37 in994.6 mb 0.00 in0.0 mm 0.00 in0.0 mm 0.05 in1.3 mm
11:30 AM 38.9°F3.8°C 34.8°F1.6°C 85% 5.0 mph SSE8.0 kmh SSE 11.0 mph17.7 kmh 29.37 in994.6 mb 0.00 in0.0 mm 0.00 in0.0 mm 0.05 in1.3 mm
11:25 AM 38.9°F3.8°C 34.8°F1.6°C 85% 5.0 mph SE8.0 kmh SE 12.0 mph19.3 kmh 29.36 in994.2 mb 0.00 in0.0 mm 0.00 in0.0 mm 0.05 in1.3 mm
11:20 AM 38.8°F3.8°C 34.7°F1.5°C 85% 4.0 mph SE6.4 kmh SE 10.0 mph16.1 kmh 29.36 in994.2 mb 0.00 in0.0 mm 0.00 in0.0 mm 0.05 in1.3 mm
11:15 AM 38.7°F3.7°C 34.6°F1.4°C 85% 4.0 mph SSE6.4 kmh SSE 9.0 mph14.5 kmh 29.36 in994.2 mb 0.00 in0.0 mm 0.00 in0.0 mm 0.05 in1.3 mm
11:10 AM 38.7°F3.7°C 34.3°F1.3°C 84% 6.0 mph SE9.7 kmh SE 11.0 mph17.7 kmh 29.36 in994.2 mb 0.00 in0.0 mm 0.00 in0.0 mm 0.05 in1.3 mm
11:05 AM 38.7°F3.7°C 34.6°F1.4°C 85% 6.0 mph SE9.7 kmh SE 14.0 mph22.5 kmh 29.35 in993.9 mb 0.00 in0.0 mm 0.00 in0.0 mm 0.05 in1.3 mm
11:00 AM 38.7°F3.7°C 34.6°F1.4°C 85% 6.0 mph SE9.7 kmh SE 12.0 mph19.3 kmh 29.35 in993.9 mb 0.00 in0.0 mm 0.00 in0.0 mm 0.05 in1.3 mm
10:55 AM 38.7°F3.7°C 34.6°F1.4°C 85% 4.0 mph SE6.4 kmh SE 11.0 mph17.7 kmh 29.34 in993.6 mb 0.00 in0.0 mm 0.00 in0.0 mm 0.05 in1.3 mm
10:50 AM 38.6°F3.7°C 34.5°F1.4°C 85% 6.0 mph SE9.7 kmh SE 12.0 mph19.3 kmh 29.34 in993.6 mb 0.00 in0.0 mm 0.00 in0.0 mm 0.05 in1.3 mm
10:45 AM 38.5°F3.6°C 34.4°F1.3°C 85% 6.0 mph SE9.7 kmh SE 14.0 mph22.5 kmh 29.34 in993.6 mb 0.00 in0.0 mm 0.00 in0.0 mm 0.05 in1.3 mm
10:40 AM 38.4°F3.6°C 34.6°F1.4°C 86% 5.0 mph ESE8.0 kmh ESE 11.0 mph17.7 kmh 29.34 in993.6 mb 0.00 in0.0 mm 0.00 in0.0 mm 0.05 in1.3 mm
10:35 AM 38.3°F3.5°C 34.5°F1.4°C 86% 6.0 mph SE9.7 kmh SE 12.0 mph19.3 kmh 29.34 in993.6 mb 0.00 in0.0 mm 0.00 in0.0 mm 0.05 in1.3 mm
10:30 AM 38.2°F3.4°C 34.4°F1.3°C 86% 5.0 mph SE8.0 kmh SE 12.0 mph19.3 kmh 29.34 in993.6 mb 0.00 in0.0 mm 0.00 in0.0 mm 0.05 in1.3 mm
10:25 AM 38.2°F3.4°C 34.4°F1.3°C 86% 6.0 mph SE9.7 kmh SE 13.0 mph20.9 kmh 29.34 in993.6 mb 0.00 in0.0 mm 0.00 in0.0 mm 0.05 in1.3 mm
10:20 AM 38.1°F3.4°C 34.6°F1.4°C 87% 5.0 mph SE8.0 kmh SE 16.0 mph25.7 kmh 29.34 in993.6 mb 0.00 in0.0 mm 0.00 in0.0 mm 0.05 in1.3 mm
10:15 AM 38.0°F3.3°C 34.5°F1.4°C 87% 4.0 mph SE6.4 kmh SE 12.0 mph19.3 kmh 29.33 in993.2 mb 0.00 in0.0 mm 0.00 in0.0 mm 0.05 in1.3 mm
10:10 AM 38.0°F3.3°C 34.5°F1.4°C 87% 4.0 mph E6.4 kmh E 12.0 mph19.3 kmh 29.33 in993.2 mb 0.00 in0.0 mm 0.00 in0.0 mm 0.05 in1.3 mm
10:05 AM 37.9°F3.3°C 34.4°F1.3°C 87% 4.0 mph ESE6.4 kmh ESE 12.0 mph19.3 kmh 29.33 in993.2 mb 0.00 in0.0 mm 0.00 in0.0 mm 0.05 in1.3 mm
10:00 AM 37.9°F3.3°C 34.4°F1.3°C 87% 3.0 mph E4.8 kmh E 9.0 mph14.5 kmh 29.33 in993.2 mb 0.00 in0.0 mm 0.00 in0.0 mm 0.05 in1.3 mm
09:55 AM 37.9°F3.3°C 34.4°F1.3°C 87% 3.0 mph ESE4.8 kmh ESE 7.0 mph11.3 kmh 29.33 in993.2 mb 0.00 in0.0 mm 0.00 in0.0 mm 0.05 in1.3 mm
09:50 AM 37.9°F3.3°C 34.4°F1.3°C 87% 4.0 mph ESE6.4 kmh ESE 11.0 mph17.7 kmh 29.33 in993.2 mb 0.00 in0.0 mm 0.00 in0.0 mm 0.05 in1.3 mm
09:45 AM 37.9°F3.3°C 34.1°F1.2°C 86% 2.0 mph ESE3.2 kmh ESE 7.0 mph11.3 kmh 29.33 in993.2 mb 0.00 in0.0 mm 0.00 in0.0 mm 0.05 in1.3 mm
09:40 AM 38.0°F3.3°C 34.2°F1.2°C 86% 3.0 mph E4.8 kmh E 11.0 mph17.7 kmh 29.33 in993.2 mb 0.00 in0.0 mm 0.00 in0.0 mm 0.05 in1.3 mm
09:35 AM 38.1°F3.4°C 34.3°F1.3°C 86% 5.0 mph SE8.0 kmh SE 14.0 mph22.5 kmh 29.33 in993.2 mb 0.00 in0.0 mm 0.00 in0.0 mm 0.05 in1.3 mm
09:30 AM 38.2°F3.4°C 34.1°F1.2°C 85% 5.0 mph SE8.0 kmh SE 13.0 mph20.9 kmh 29.32 in992.9 mb 0.00 in0.0 mm 0.00 in0.0 mm 0.05 in1.3 mm
09:25 AM 38.4°F3.6°C 34.0°F1.1°C 84% 4.0 mph ESE6.4 kmh ESE 17.0 mph27.4 kmh 29.32 in992.9 mb 0.00 in0.0 mm 0.00 in0.0 mm 0.05 in1.3 mm
09:20 AM 38.6°F3.7°C 33.9°F1.1°C 83% 4.0 mph E6.4 kmh E 12.0 mph19.3 kmh 29.32 in992.9 mb 0.00 in0.0 mm 0.00 in0.0 mm 0.05 in1.3 mm
09:15 AM 38.6°F3.7°C 33.9°F1.1°C 83% 5.0 mph ESE8.0 kmh ESE 12.0 mph19.3 kmh 29.32 in992.9 mb 0.00 in0.0 mm 0.00 in0.0 mm 0.05 in1.3 mm
09:10 AM 38.6°F3.7°C 33.6°F0.9°C 82% 5.0 mph E8.0 kmh E 15.0 mph24.1 kmh 29.32 in992.9 mb 0.00 in0.0 mm 0.00 in0.0 mm 0.05 in1.3 mm
09:05 AM 38.6°F3.7°C 33.6°F0.9°C 82% 5.0 mph E8.0 kmh E 15.0 mph24.1 kmh 29.32 in992.9 mb 0.00 in0.0 mm 0.00 in0.0 mm 0.05 in1.3 mm
09:00 AM 38.6°F3.7°C 33.6°F0.9°C 82% 4.0 mph E6.4 kmh E 13.0 mph20.9 kmh 29.32 in992.9 mb 0.00 in0.0 mm 0.00 in0.0 mm 0.05 in1.3 mm
08:55 AM 38.5°F3.6°C 33.5°F0.8°C 82% 4.0 mph E6.4 kmh E 10.0 mph16.1 kmh 29.32 in992.9 mb 0.00 in0.0 mm 0.00 in0.0 mm 0.05 in1.3 mm
08:50 AM 38.5°F3.6°C 33.8°F1.0°C 83% 3.0 mph ESE4.8 kmh ESE 8.0 mph12.9 kmh 29.32 in992.9 mb 0.00 in0.0 mm 0.00 in0.0 mm 0.05 in1.3 mm
08:45 AM 38.5°F3.6°C 33.5°F0.8°C 82% 4.0 mph E6.4 kmh E 10.0 mph16.1 kmh 29.31 in992.6 mb 0.00 in0.0 mm 0.00 in0.0 mm 0.05 in1.3 mm
08:40 AM 38.4°F3.6°C 33.4°F0.8°C 82% 4.0 mph ENE6.4 kmh ENE 14.0 mph22.5 kmh 29.31 in992.6 mb 0.00 in0.0 mm 0.00 in0.0 mm 0.05 in1.3 mm
08:35 AM 38.4°F3.6°C 33.7°F0.9°C 83% 3.0 mph ENE4.8 kmh ENE 10.0 mph16.1 kmh 29.31 in992.6 mb 0.00 in0.0 mm 0.00 in0.0 mm 0.05 in1.3 mm
08:30 AM 38.2°F3.4°C 33.5°F0.8°C 83% 2.0 mph ENE3.2 kmh ENE 8.0 mph12.9 kmh 29.31 in992.6 mb 0.00 in0.0 mm 0.00 in0.0 mm 0.05 in1.3 mm
08:25 AM 38.2°F3.4°C 33.8°F1.0°C 84% 3.0 mph ESE4.8 kmh ESE 9.0 mph14.5 kmh 29.31 in992.6 mb 0.00 in0.0 mm 0.00 in0.0 mm 0.05 in1.3 mm
08:20 AM 38.2°F3.4°C 33.8°F1.0°C 84% 2.0 mph E3.2 kmh E 8.0 mph12.9 kmh 29.31 in992.6 mb 0.00 in0.0 mm 0.00 in0.0 mm 0.05 in1.3 mm
08:15 AM 38.3°F3.5°C 33.6°F0.9°C 83% 1.0 mph ENE1.6 kmh ENE 6.0 mph9.7 kmh 29.30 in992.2 mb 0.00 in0.0 mm 0.00 in0.0 mm 0.05 in1.3 mm
08:10 AM 38.3°F3.5°C 33.6°F0.9°C 83% 2.0 mph ESE3.2 kmh ESE 6.0 mph9.7 kmh 29.30 in992.2 mb 0.00 in0.0 mm 0.00 in0.0 mm 0.05 in1.3 mm
08:05 AM 38.4°F3.6°C 33.7°F0.9°C 83% 3.0 mph ESE4.8 kmh ESE 8.0 mph12.9 kmh 29.30 in992.2 mb 0.00 in0.0 mm 0.00 in0.0 mm 0.05 in1.3 mm
08:00 AM 38.4°F3.6°C 33.4°F0.8°C 82% 5.0 mph E8.0 kmh E 12.0 mph19.3 kmh 29.31 in992.6 mb 0.00 in0.0 mm 0.00 in0.0 mm 0.05 in1.3 mm
07:55 AM 38.4°F3.6°C 33.4°F0.8°C 82% 5.0 mph E8.0 kmh E 11.0 mph17.7 kmh 29.30 in992.2 mb 0.00 in0.0 mm 0.00 in0.0 mm 0.05 in1.3 mm
07:50 AM 38.3°F3.5°C 33.6°F0.9°C 83% 3.0 mph NE4.8 kmh NE 9.0 mph14.5 kmh 29.30 in992.2 mb 0.00 in0.0 mm 0.00 in0.0 mm 0.05 in1.3 mm
07:45 AM 38.3°F3.5°C 33.6°F0.9°C 83% 2.0 mph E3.2 kmh E 7.0 mph11.3 kmh 29.30 in992.2 mb 0.00 in0.0 mm 0.00 in0.0 mm 0.05 in1.3 mm
07:40 AM 38.2°F3.4°C 33.5°F0.8°C 83% 3.0 mph E4.8 kmh E 9.0 mph14.5 kmh 29.30 in992.2 mb 0.00 in0.0 mm 0.00 in0.0 mm 0.05 in1.3 mm
07:35 AM 38.2°F3.4°C 33.5°F0.8°C 83% 4.0 mph E6.4 kmh E 10.0 mph16.1 kmh 29.30 in992.2 mb 0.00 in0.0 mm 0.00 in0.0 mm 0.05 in1.3 mm
07:30 AM 38.1°F3.4°C 33.7°F0.9°C 84% 3.0 mph E4.8 kmh E 9.0 mph14.5 kmh 29.30 in992.2 mb 0.00 in0.0 mm 0.00 in0.0 mm 0.05 in1.3 mm
07:25 AM 38.1°F3.4°C 33.7°F0.9°C 84% 4.0 mph E6.4 kmh E 10.0 mph16.1 kmh 29.30 in992.2 mb 0.00 in0.0 mm 0.00 in0.0 mm 0.05 in1.3 mm
07:20 AM 38.2°F3.4°C 33.8°F1.0°C 84% 5.0 mph E8.0 kmh E 11.0 mph17.7 kmh 29.30 in992.2 mb 0.00 in0.0 mm 0.00 in0.0 mm 0.05 in1.3 mm
07:15 AM 38.2°F3.4°C 33.8°F1.0°C 84% 5.0 mph E8.0 kmh E 11.0 mph17.7 kmh 29.30 in992.2 mb 0.00 in0.0 mm 0.00 in0.0 mm 0.05 in1.3 mm
07:10 AM 38.1°F3.4°C 34.0°F1.1°C 85% 3.0 mph SE4.8 kmh SE 10.0 mph16.1 kmh 29.30 in992.2 mb 0.00 in0.0 mm 0.00 in0.0 mm 0.05 in1.3 mm
07:05 AM 38.1°F3.4°C 34.3°F1.3°C 86% 3.0 mph E4.8 kmh E 13.0 mph20.9 kmh 29.30 in992.2 mb 0.00 in0.0 mm 0.00 in0.0 mm 0.05 in1.3 mm
07:00 AM 38.0°F3.3°C 34.2°F1.2°C 86% 3.0 mph SE4.8 kmh SE 9.0 mph14.5 kmh 29.30 in992.2 mb 0.00 in0.0 mm 0.00 in0.0 mm 0.05 in1.3 mm
06:55 AM 38.0°F3.3°C 34.2°F1.2°C 86% 3.0 mph E4.8 kmh E 13.0 mph20.9 kmh 29.30 in992.2 mb 0.00 in0.0 mm 0.00 in0.0 mm 0.05 in1.3 mm
06:50 AM 37.9°F3.3°C 34.4°F1.3°C 87% 1.0 mph E1.6 kmh E 6.0 mph9.7 kmh 29.30 in992.2 mb 0.00 in0.0 mm 0.00 in0.0 mm 0.05 in1.3 mm
06:45 AM 37.9°F3.3°C 34.4°F1.3°C 87% 1.0 mph SE1.6 kmh SE 6.0 mph9.7 kmh 29.30 in992.2 mb 0.00 in0.0 mm 0.00 in0.0 mm 0.05 in1.3 mm
06:40 AM 37.9°F3.3°C 34.4°F1.3°C 87% 1.0 mph E1.6 kmh E 7.0 mph11.3 kmh 29.30 in992.2 mb 0.00 in0.0 mm 0.00 in0.0 mm 0.05 in1.3 mm
06:35 AM 37.9°F3.3°C 34.4°F1.3°C 87% 1.0 mph ENE1.6 kmh ENE 6.0 mph9.7 kmh 29.30 in992.2 mb 0.00 in0.0 mm 0.00 in0.0 mm 0.05 in1.3 mm
06:30 AM 37.9°F3.3°C 34.4°F1.3°C 87% 1.0 mph SE1.6 kmh SE 5.0 mph8.0 kmh 29.30 in992.2 mb 0.00 in0.0 mm 0.00 in0.0 mm 0.05 in1.3 mm
06:25 AM 38.0°F3.3°C 34.5°F1.4°C 87% 1.0 mph ESE1.6 kmh ESE 5.0 mph8.0 kmh 29.30 in992.2 mb 0.00 in0.0 mm 0.00 in0.0 mm 0.05 in1.3 mm
06:20 AM 38.0°F3.3°C 34.5°F1.4°C 87% 1.0 mph ENE1.6 kmh ENE 8.0 mph12.9 kmh 29.30 in992.2 mb 0.00 in0.0 mm 0.00 in0.0 mm 0.05 in1.3 mm
06:15 AM 38.0°F3.3°C 34.5°F1.4°C 87% 2.0 mph E3.2 kmh E 11.0 mph17.7 kmh 29.30 in992.2 mb 0.00 in0.0 mm 0.00 in0.0 mm 0.05 in1.3 mm
06:10 AM 38.1°F3.4°C 34.6°F1.4°C 87% 2.0 mph E3.2 kmh E 8.0 mph12.9 kmh 29.30 in992.2 mb 0.00 in0.0 mm 0.00 in0.0 mm 0.05 in1.3 mm
06:05 AM 38.1°F3.4°C 34.6°F1.4°C 87% 2.0 mph E3.2 kmh E 7.0 mph11.3 kmh 29.30 in992.2 mb 0.00 in0.0 mm 0.00 in0.0 mm 0.05 in1.3 mm
06:00 AM 38.2°F3.4°C 34.7°F1.5°C 87% 3.0 mph ESE4.8 kmh ESE 9.0 mph14.5 kmh 29.30 in992.2 mb 0.00 in0.0 mm 0.00 in0.0 mm 0.05 in1.3 mm
05:55 AM 38.2°F3.4°C 34.7°F1.5°C 87% 2.0 mph ENE3.2 kmh ENE 9.0 mph14.5 kmh 29.30 in992.2 mb 0.00 in0.0 mm 0.00 in0.0 mm 0.05 in1.3 mm
05:50 AM 38.1°F3.4°C 34.6°F1.4°C 87% 3.0 mph ESE4.8 kmh ESE 12.0 mph19.3 kmh 29.30 in992.2 mb 0.00 in0.0 mm 0.00 in0.0 mm 0.05 in1.3 mm
05:45 AM 38.0°F3.3°C 34.8°F1.6°C 88% 4.0 mph E6.4 kmh E 10.0 mph16.1 kmh 29.30 in992.2 mb 0.00 in0.0 mm 0.00 in0.0 mm 0.05 in1.3 mm
05:40 AM 37.9°F3.3°C 34.7°F1.5°C 88% 3.0 mph E4.8 kmh E 9.0 mph14.5 kmh 29.30 in992.2 mb 0.00 in0.0 mm 0.00 in0.0 mm 0.05 in1.3 mm
05:35 AM 37.9°F3.3°C 34.7°F1.5°C 88% 3.0 mph E4.8 kmh E 10.0 mph16.1 kmh 29.30 in992.2 mb 0.00 in0.0 mm 0.00 in0.0 mm 0.05 in1.3 mm
05:30 AM 37.9°F3.3°C 34.7°F1.5°C 88% 3.0 mph SE4.8 kmh SE 12.0 mph19.3 kmh 29.30 in992.2 mb 0.00 in0.0 mm 0.00 in0.0 mm 0.05 in1.3 mm
05:25 AM 37.9°F3.3°C 34.7°F1.5°C 88% 3.0 mph SE4.8 kmh SE 7.0 mph11.3 kmh 29.30 in992.2 mb 0.00 in0.0 mm 0.00 in0.0 mm 0.05 in1.3 mm
05:20 AM 38.0°F3.3°C 34.8°F1.6°C 88% 1.0 mph ESE1.6 kmh ESE 6.0 mph9.7 kmh 29.30 in992.2 mb 0.00 in0.0 mm 0.00 in0.0 mm 0.05 in1.3 mm
05:15 AM 38.2°F3.4°C 35.0°F1.7°C 88% 3.0 mph SE4.8 kmh SE 10.0 mph16.1 kmh 29.30 in992.2 mb 0.00 in0.0 mm 0.00 in0.0 mm 0.05 in1.3 mm
05:10 AM 38.3°F3.5°C 35.1°F1.7°C 88% 3.0 mph SE4.8 kmh SE 11.0 mph17.7 kmh 29.30 in992.2 mb 0.00 in0.0 mm 0.00 in0.0 mm 0.05 in1.3 mm
05:05 AM 38.4°F3.6°C 35.2°F1.8°C 88% 3.0 mph SE4.8 kmh SE 10.0 mph16.1 kmh 29.29 in991.9 mb 0.00 in0.0 mm 0.00 in0.0 mm 0.05 in1.3 mm
05:00 AM 38.5°F3.6°C 35.3°F1.8°C 88% 4.0 mph ESE6.4 kmh ESE 10.0 mph16.1 kmh 29.29 in991.9 mb 0.00 in0.0 mm 0.00 in0.0 mm 0.05 in1.3 mm
04:55 AM 38.5°F3.6°C 35.3°F1.8°C 88% 3.0 mph E4.8 kmh E 11.0 mph17.7 kmh 29.29 in991.9 mb 0.00 in0.0 mm 0.00 in0.0 mm 0.05 in1.3 mm
04:50 AM 38.6°F3.7°C 35.4°F1.9°C 88% 3.0 mph ESE4.8 kmh ESE 7.0 mph11.3 kmh 29.29 in991.9 mb 0.00 in0.0 mm 0.00 in0.0 mm 0.05 in1.3 mm
04:45 AM 38.7°F3.7°C 35.5°F1.9°C 88% 5.0 mph ESE8.0 kmh ESE 11.0 mph17.7 kmh 29.28 in991.5 mb 0.00 in0.0 mm 0.00 in0.0 mm 0.05 in1.3 mm
04:40 AM 38.8°F3.8°C 35.6°F2.0°C 88% 3.0 mph SE4.8 kmh SE 12.0 mph19.3 kmh 29.28 in991.5 mb 0.00 in0.0 mm 0.00 in0.0 mm 0.05 in1.3 mm
04:35 AM 38.9°F3.8°C 35.7°F2.1°C 88% 4.0 mph ESE6.4 kmh ESE 12.0 mph19.3 kmh 29.28 in991.5 mb 0.00 in0.0 mm 0.00 in0.0 mm 0.05 in1.3 mm
04:30 AM 39.0°F3.9°C 35.8°F2.1°C 88% 3.0 mph ESE4.8 kmh ESE 9.0 mph14.5 kmh 29.28 in991.5 mb 0.00 in0.0 mm 0.00 in0.0 mm 0.05 in1.3 mm
04:25 AM 39.2°F4.0°C 35.9°F2.2°C 88% 4.0 mph E6.4 kmh E 13.0 mph20.9 kmh 29.28 in991.5 mb 0.00 in0.0 mm 0.00 in0.0 mm 0.05 in1.3 mm
04:20 AM 39.3°F4.1°C 36.3°F2.4°C 89% 4.0 mph SE6.4 kmh SE 9.0 mph14.5 kmh 29.29 in991.9 mb 0.00 in0.0 mm 0.00 in0.0 mm 0.05 in1.3 mm
04:15 AM 39.4°F4.1°C 36.4°F2.4°C 89% 4.0 mph E6.4 kmh E 8.0 mph12.9 kmh 29.28 in991.5 mb 0.00 in0.0 mm 0.00 in0.0 mm 0.05 in1.3 mm
04:10 AM 39.4°F4.1°C 36.4°F2.4°C 89% 2.0 mph ESE3.2 kmh ESE 8.0 mph12.9 kmh 29.28 in991.5 mb 0.00 in0.0 mm 0.00 in0.0 mm 0.05 in1.3 mm
04:05 AM 39.5°F4.2°C 36.8°F2.7°C 90% 4.0 mph E6.4 kmh E 11.0 mph17.7 kmh 29.28 in991.5 mb 0.01 in0.3 mm 0.00 in0.0 mm 0.05 in1.3 mm
04:00 AM 39.5°F4.2°C 36.8°F2.7°C 90% 2.0 mph ESE3.2 kmh ESE 10.0 mph16.1 kmh 29.28 in991.5 mb 0.02 in0.5 mm 0.00 in0.0 mm 0.05 in1.3 mm
03:55 AM 39.5°F4.2°C 36.8°F2.7°C 90% 2.0 mph E3.2 kmh E 8.0 mph12.9 kmh 29.28 in991.5 mb 0.02 in0.5 mm 0.00 in0.0 mm 0.05 in1.3 mm
03:50 AM 39.6°F4.2°C 36.9°F2.7°C 90% 1.0 mph SE1.6 kmh SE 6.0 mph9.7 kmh 29.28 in991.5 mb 0.02 in0.5 mm 0.00 in0.0 mm 0.05 in1.3 mm
03:45 AM 39.7°F4.3°C 37.0°F2.8°C 90% 1.0 mph SE1.6 kmh SE 4.0 mph6.4 kmh 29.28 in991.5 mb 0.02 in0.5 mm 0.00 in0.0 mm 0.05 in1.3 mm
03:40 AM 39.7°F4.3°C 37.0°F2.8°C 90% 3.0 mph E4.8 kmh E 9.0 mph14.5 kmh 29.28 in991.5 mb 0.03 in0.8 mm 0.00 in0.0 mm 0.05 in1.3 mm
03:35 AM 39.7°F4.3°C 37.0°F2.8°C 90% 3.0 mph E4.8 kmh E 10.0 mph16.1 kmh 29.28 in991.5 mb 0.03 in0.8 mm 0.00 in0.0 mm 0.05 in1.3 mm
03:30 AM 39.8°F4.3°C 37.1°F2.8°C 90% 3.0 mph ESE4.8 kmh ESE 11.0 mph17.7 kmh 29.28 in991.5 mb 0.04 in1.0 mm 0.00 in0.0 mm 0.05 in1.3 mm
03:25 AM 39.8°F4.3°C 37.1°F2.8°C 90% 3.0 mph ESE4.8 kmh ESE 8.0 mph12.9 kmh 29.29 in991.9 mb 0.05 in1.3 mm 0.00 in0.0 mm 0.05 in1.3 mm
03:20 AM 39.8°F4.3°C 37.1°F2.8°C 90% 4.0 mph E6.4 kmh E 13.0 mph20.9 kmh 29.28 in991.5 mb 0.05 in1.3 mm 0.00 in0.0 mm 0.05 in1.3 mm
03:15 AM 39.9°F4.4°C 37.2°F2.9°C 90% 2.0 mph E3.2 kmh E 7.0 mph11.3 kmh 29.28 in991.5 mb 0.05 in1.3 mm 0.00 in0.0 mm 0.05 in1.3 mm
03:10 AM 39.9°F4.4°C 37.2°F2.9°C 90% 4.0 mph E6.4 kmh E 10.0 mph16.1 kmh 29.29 in991.9 mb 0.05 in1.3 mm 0.12 in3.0 mm 0.05 in1.3 mm
03:05 AM 40.0°F4.4°C 37.0°F2.8°C 89% 5.0 mph E8.0 kmh E 11.0 mph17.7 kmh 29.29 in991.9 mb 0.04 in1.0 mm 0.12 in3.0 mm 0.04 in1.0 mm
03:00 AM 40.2°F4.6°C 37.2°F2.9°C 89% 2.0 mph E3.2 kmh E 7.0 mph11.3 kmh 29.28 in991.5 mb 0.03 in0.8 mm 0.00 in0.0 mm 0.03 in0.8 mm
02:55 AM 40.3°F4.6°C 37.3°F2.9°C 89% 1.0 mph E1.6 kmh E 6.0 mph9.7 kmh 29.28 in991.5 mb 0.03 in0.8 mm 0.00 in0.0 mm 0.03 in0.8 mm
02:50 AM 40.4°F4.7°C 37.4°F3.0°C 89% 3.0 mph E4.8 kmh E 10.0 mph16.1 kmh 29.28 in991.5 mb 0.03 in0.8 mm 0.12 in3.0 mm 0.03 in0.8 mm
02:45 AM 40.6°F4.8°C 37.3°F2.9°C 88% 2.0 mph E3.2 kmh E 9.0 mph14.5 kmh 29.29 in991.9 mb 0.02 in0.5 mm 0.00 in0.0 mm 0.02 in0.5 mm
02:40 AM 40.7°F4.8°C 37.4°F3.0°C 88% 1.0 mph ESE1.6 kmh ESE 7.0 mph11.3 kmh 29.29 in991.9 mb 0.02 in0.5 mm 0.00 in0.0 mm 0.02 in0.5 mm
02:35 AM 40.9°F4.9°C 37.3°F2.9°C 87% 1.0 mph E1.6 kmh E 6.0 mph9.7 kmh 29.29 in991.9 mb 0.02 in0.5 mm 0.12 in3.0 mm 0.02 in0.5 mm
02:30 AM 41.0°F5.0°C 37.1°F2.8°C 86% 1.0 mph E1.6 kmh E 5.0 mph8.0 kmh 29.29 in991.9 mb 0.01 in0.3 mm 0.12 in3.0 mm 0.01 in0.3 mm
02:25 AM 41.1°F5.1°C 37.2°F2.9°C 86% 1.0 mph NE1.6 kmh NE 7.0 mph11.3 kmh 29.29 in991.9 mb 0.00 in0.0 mm 0.00 in0.0 mm 0.00 in0.0 mm
02:20 AM 41.0°F5.0°C 37.1°F2.8°C 86% Calm Calm 7.0 mph11.3 kmh 29.29 in991.9 mb 0.00 in0.0 mm 0.00 in0.0 mm 0.00 in0.0 mm
02:15 AM 41.1°F5.1°C 37.2°F2.9°C 86% 1.0 mph NE1.6 kmh NE 3.0 mph4.8 kmh 29.29 in991.9 mb 0.00 in0.0 mm 0.00 in0.0 mm 0.00 in0.0 mm
02:10 AM 41.1°F5.1°C 37.2°F2.9°C 86% Calm Calm 3.0 mph4.8 kmh 29.29 in991.9 mb 0.00 in0.0 mm 0.00 in0.0 mm 0.00 in0.0 mm
02:05 AM 41.1°F5.1°C 36.9°F2.7°C 85% Calm Calm 3.0 mph4.8 kmh 29.30 in992.2 mb 0.00 in0.0 mm 0.00 in0.0 mm 0.00 in0.0 mm
02:00 AM 41.1°F5.1°C 36.9°F2.7°C 85% Calm Calm 4.0 mph6.4 kmh 29.30 in992.2 mb 0.00 in0.0 mm 0.00 in0.0 mm 0.00 in0.0 mm
01:55 AM 41.1°F5.1°C 36.6°F2.6°C 84% Calm Calm 4.0 mph6.4 kmh 29.30 in992.2 mb 0.00 in0.0 mm 0.00 in0.0 mm 0.00 in0.0 mm
01:50 AM 41.0°F5.0°C 36.2°F2.3°C 83% Calm Calm 1.0 mph1.6 kmh 29.30 in992.2 mb 0.00 in0.0 mm 0.00 in0.0 mm 0.00 in0.0 mm
01:45 AM 41.0°F5.0°C 35.9°F2.2°C 82% Calm Calm 3.0 mph4.8 kmh 29.31 in992.6 mb 0.00 in0.0 mm 0.00 in0.0 mm 0.00 in0.0 mm
01:40 AM 41.0°F5.0°C 35.9°F2.2°C 82% Calm Calm 1.0 mph1.6 kmh 29.30 in992.2 mb 0.00 in0.0 mm 0.00 in0.0 mm 0.00 in0.0 mm
01:35 AM 41.1°F5.1°C 36.3°F2.4°C 83% Calm Calm 2.0 mph3.2 kmh 29.31 in992.6 mb 0.00 in0.0 mm 0.00 in0.0 mm 0.00 in0.0 mm
01:30 AM 41.1°F5.1°C 36.3°F2.4°C 83% Calm Calm 3.0 mph4.8 kmh 29.31 in992.6 mb 0.00 in0.0 mm 0.00 in0.0 mm 0.00 in0.0 mm
01:25 AM 41.2°F5.1°C 36.4°F2.4°C 83% Calm Calm 3.0 mph4.8 kmh 29.31 in992.6 mb 0.00 in0.0 mm 0.00 in0.0 mm 0.00 in0.0 mm
01:20 AM 41.3°F5.2°C 36.5°F2.5°C 83% Calm Calm 3.0 mph4.8 kmh 29.31 in992.6 mb 0.00 in0.0 mm 0.00 in0.0 mm 0.00 in0.0 mm
01:15 AM 41.5°F5.3°C 36.7°F2.6°C 83% Calm Calm 3.0 mph4.8 kmh 29.32 in992.9 mb 0.00 in0.0 mm 0.00 in0.0 mm 0.00 in0.0 mm
01:10 AM 41.6°F5.3°C 36.8°F2.7°C 83% Calm Calm -- 29.32 in992.9 mb 0.00 in0.0 mm 0.00 in0.0 mm 0.00 in0.0 mm
01:05 AM 41.6°F5.3°C 36.8°F2.7°C 83% Calm Calm 1.0 mph1.6 kmh 29.32 in992.9 mb 0.00 in0.0 mm 0.00 in0.0 mm 0.00 in0.0 mm
01:00 AM 41.7°F5.4°C 36.9°F2.7°C 83% Calm Calm 3.0 mph4.8 kmh 29.33 in993.2 mb 0.00 in0.0 mm 0.00 in0.0 mm 0.00 in0.0 mm
12:55 AM 41.7°F5.4°C 37.2°F2.9°C 84% Calm Calm 2.0 mph3.2 kmh 29.33 in993.2 mb 0.00 in0.0 mm 0.00 in0.0 mm 0.00 in0.0 mm
12:50 AM 41.7°F5.4°C 37.2°F2.9°C 84% 1.0 mph E1.6 kmh E 6.0 mph9.7 kmh 29.34 in993.6 mb 0.00 in0.0 mm 0.00 in0.0 mm 0.00 in0.0 mm
12:45 AM 41.8°F5.4°C 37.9°F3.3°C 86% Calm Calm 5.0 mph8.0 kmh 29.33 in993.2 mb 0.00 in0.0 mm 0.00 in0.0 mm 0.00 in0.0 mm
12:40 AM 42.0°F5.6°C 38.1°F3.4°C 86% Calm Calm 3.0 mph4.8 kmh 29.33 in993.2 mb 0.00 in0.0 mm 0.00 in0.0 mm 0.00 in0.0 mm
12:35 AM 42.2°F5.7°C 38.6°F3.7°C 87% Calm Calm 1.0 mph1.6 kmh 29.33 in993.2 mb 0.00 in0.0 mm 0.00 in0.0 mm 0.00 in0.0 mm
12:30 AM 42.3°F5.7°C 38.7°F3.7°C 87% Calm Calm 1.0 mph1.6 kmh 29.32 in992.9 mb 0.00 in0.0 mm 0.00 in0.0 mm 0.00 in0.0 mm
12:25 AM 42.4°F5.8°C 38.8°F3.8°C 87% Calm Calm -- 29.31 in992.6 mb 0.00 in0.0 mm 0.00 in0.0 mm 0.00 in0.0 mm
12:20 AM 42.5°F5.8°C 38.9°F3.8°C 87% Calm Calm -- 29.31 in992.6 mb 0.00 in0.0 mm 0.00 in0.0 mm 0.00 in0.0 mm
12:15 AM 42.6°F5.9°C 39.0°F3.9°C 87% Calm Calm -- 29.31 in992.6 mb 0.00 in0.0 mm 0.00 in0.0 mm 0.00 in0.0 mm
12:10 AM 42.7°F5.9°C 39.1°F3.9°C 87% Calm Calm -- 29.31 in992.6 mb 0.00 in0.0 mm 0.00 in0.0 mm 0.00 in0.0 mm
12:05 AM 42.7°F5.9°C 39.4°F4.1°C 88% Calm Calm -- 29.31 in992.6 mb 0.00 in0.0 mm 0.00 in0.0 mm 0.00 in0.0 mm
12:00 AM 42.7°F5.9°C 39.4°F4.1°C 88% 1.0 mph SSW1.6 kmh SSW 3.0 mph4.8 kmh 29.31 in992.6 mb 0.00 in0.0 mm 0.00 in0.0 mm 0.00 in0.0 mm